Time;durP1;ratioP1;P1;durP2;ratioP2;P2;SDS_P1;SDS_P2;PMS_P1;PMS_P2;Temp;Humidity;BMP_temperature;BMP_pressure;BME280_temperature;BME280_humidity;BME280_pressure;Samples;Min_cycle;Max_cycle;Signal;HPM_P1;HPM_P2
2022/06/17 00:00:59;;;;;;;17.50;8.60;;;;;;;16.62;61.01;99064.51;104884;1288;99331;-69
2022/06/17 00:03:33;;;;;;;14.80;7.80;;;;;;;16.61;61.01;99064.96;104520;1291;99377;-70
2022/06/17 00:06:07;;;;;;;16.40;9.10;;;;;;;16.62;61.16;99067.75;104913;1288;111711;-69
2022/06/17 00:08:43;;;;;;;17.70;9.50;;;;;;;16.63;61.24;99070.15;104871;1288;96671;-69
2022/06/17 00:11:26;;;;;;;16.60;9.50;;;;;;;16.63;61.35;99071.60;104820;1288;108368;-70
2022/06/17 00:13:54;;;;;;;;;;;;;;;16.63;61.46;99074.42;104923;1288;96581;-71
2022/06/17 00:16:28;;;;;;;19.30;10.50;;;;;;;16.61;61.60;99083.42;104962;1288;99341;-70
2022/06/17 00:18:56;;;;;;;19.20;11.50;;;;;;;16.61;61.58;99088.77;104858;1288;112507;-69
2022/06/17 00:21:43;;;;;;;19.70;11.60;;;;;;;16.62;61.59;99092.80;104876;1287;99483;-68
2022/06/17 00:24:25;;;;;;;19.40;12.20;;;;;;;16.60;61.65;99088.85;104868;1288;108481;-67
2022/06/17 00:26:57;;;;;;;21.20;12.10;;;;;;;16.60;61.76;99088.88;104670;1288;99411;-68
2022/06/17 00:29:33;;;;;;;20.70;12.40;;;;;;;16.60;61.73;99085.27;104774;1288;99102;-68
2022/06/17 00:32:01;;;;;;;21.60;12.90;;;;;;;16.60;61.83;99082.05;104765;1288;112730;-67
2022/06/17 00:34:28;;;;;;;21.60;13.10;;;;;;;16.60;61.81;99082.48;104702;1290;99274;-67
2022/06/17 00:37:06;;;;;;;21.50;12.60;;;;;;;16.60;61.87;99084.98;104760;1288;108446;-67
2022/06/17 00:39:39;;;;;;;22.70;12.80;;;;;;;16.59;62.01;99084.27;104862;1288;99345;-67
2022/06/17 00:42:19;;;;;;;21.30;12.90;;;;;;;16.60;62.02;99085.35;104838;1288;99348;-66
2022/06/17 00:45:29;;;;;;;21.60;13.40;;;;;;;16.59;62.10;99082.56;104879;1288;112546;-68
2022/06/17 00:48:25;;;;;;;19.60;12.00;;;;;;;16.57;62.18;99083.79;104925;1288;99130;-66
2022/06/17 00:51:09;;;;;;;19.50;12.20;;;;;;;16.56;62.29;99088.42;104845;1287;108415;-68
2022/06/17 00:53:50;;;;;;;20.80;12.40;;;;;;;16.55;62.33;99086.00;104900;1288;99357;-67
2022/06/17 00:56:28;;;;;;;20.50;12.00;;;;;;;16.56;62.44;99086.10;104757;1288;99954;-69
2022/06/17 00:59:01;;;;;;;20.50;12.60;;;;;;;16.56;62.47;99078.57;104648;1290;115581;-67
2022/06/17 01:01:53;;;;;;;19.30;12.30;;;;;;;16.57;62.57;99079.19;104850;1288;99869;-68
2022/06/17 01:04:42;;;;;;;20.00;12.20;;;;;;;16.57;62.67;99076.80;104539;1290;108315;-70
2022/06/17 01:07:19;;;;;;;19.90;11.50;;;;;;;16.57;62.66;99072.54;104871;1288;99255;-69
2022/06/17 01:10:01;;;;;;;20.10;11.70;;;;;;;16.55;62.60;99070.02;104645;1289;99274;-67
2022/06/17 01:12:43;;;;;;;22.50;12.30;;;;;;;16.55;62.75;99062.91;104868;1288;113422;-69
2022/06/17 01:15:18;;;;;;;19.30;11.30;;;;;;;16.54;62.91;99057.77;104731;1288;99364;-68
2022/06/17 01:17:48;;;;;;;21.00;11.10;;;;;;;16.54;62.87;99055.78;104652;1290;107819;-70
2022/06/17 01:20:20;;;;;;;20.00;11.10;;;;;;;16.55;62.95;99058.05;104571;1290;99268;-68
2022/06/17 01:22:54;;;;;;;21.70;11.30;;;;;;;16.55;62.98;99057.36;104869;1288;97992;-68
2022/06/17 01:25:31;;;;;;;18.90;11.50;;;;;;;16.55;63.05;99059.85;104813;1291;112087;-70
2022/06/17 01:28:07;;;;;;;18.70;10.90;;;;;;;16.55;63.19;99060.86;104845;1288;99159;-69
2022/06/17 01:30:43;;;;;;;17.70;10.90;;;;;;;16.56;63.21;99055.81;104695;1290;107902;-68
2022/06/17 01:33:24;;;;;;;19.00;11.30;;;;;;;16.56;63.28;99052.61;104630;1288;99244;-67
2022/06/17 01:36:16;;;;;;;20.80;11.20;;;;;;;16.56;63.31;99054.20;104936;1286;97705;-67
2022/06/17 01:38:48;;;;;;;20.40;11.30;;;;;;;16.54;63.28;99056.72;104903;1288;113386;-67
2022/06/17 01:41:24;;;;;;;19.80;11.50;;;;;;;16.51;63.30;99054.27;104897;1288;99930;-68
2022/06/17 01:44:08;;;;;;;19.10;11.50;;;;;;;16.47;63.30;99059.34;104805;1287;109006;-68
2022/06/17 01:46:42;;;;;;;20.00;10.40;;;;;;;16.43;63.49;99064.42;104751;1288;99325;-69
2022/06/17 01:49:48;;;;;;;19.10;10.60;;;;;;;16.40;63.47;99067.58;104846;1288;99322;-68
2022/06/17 01:52:36;;;;;;;19.30;11.60;;;;;;;16.35;63.54;99074.46;104468;1288;113346;-68
2022/06/17 01:55:24;;;;;;;19.70;11.80;;;;;;;16.32;63.65;99073.14;104830;1288;99226;-69
2022/06/17 01:58:08;;;;;;;22.00;11.70;;;;;;;16.29;63.68;99077.95;104708;1290;107885;-68
2022/06/17 02:00:36;;;;;;;19.00;11.60;;;;;;;16.27;63.61;99079.34;104898;1288;99248;-67
2022/06/17 02:03:13;;;;;;;21.90;12.80;;;;;;;16.26;63.79;99075.83;104746;1290;99232;-68
2022/06/17 02:05:47;;;;;;;20.90;12.60;;;;;;;16.25;63.85;99079.73;104575;1290;112834;-68
2022/06/17 02:08:17;;;;;;;21.60;13.00;;;;;;;16.25;63.96;99081.95;104803;1288;99313;-68
2022/06/17 02:10:49;;;;;;;23.00;13.80;;;;;;;16.24;63.89;99082.71;104907;1288;107019;-70
2022/06/17 02:13:18;;;;;;;20.90;12.50;;;;;;;16.25;64.07;99085.10;104956;1288;100408;-69
2022/06/17 02:15:48;;;;;;;20.50;12.80;;;;;;;16.25;64.11;99087.39;104948;1287;96731;-68
2022/06/17 02:18:19;;;;;;;20.60;13.60;;;;;;;16.26;64.14;99088.73;104901;1288;113363;-66
2022/06/17 02:20:55;;;;;;;23.30;13.90;;;;;;;16.26;64.16;99090.71;104617;1288;99538;-67
2022/06/17 02:23:26;;;;;;;22.10;13.20;;;;;;;16.27;64.30;99093.55;104557;1290;107985;-68
2022/06/17 02:25:58;;;;;;;21.70;13.30;;;;;;;16.26;64.23;99097.19;104710;1288;100029;-68
2022/06/17 02:28:31;;;;;;;24.40;14.20;;;;;;;16.25;64.32;99097.31;104749;1288;99215;-68
2022/06/17 02:31:00;;;;;;;24.30;15.00;;;;;;;16.22;64.33;99095.88;104814;1288;112704;-68
2022/06/17 02:33:32;;;;;;;22.30;14.80;;;;;;;16.21;64.33;99098.67;104839;1288;97632;-68
2022/06/17 02:36:33;;;;;;;22.90;14.40;;;;;;;16.19;64.43;99099.39;104743;1288;107799;-68
2022/06/17 02:39:04;;;;;;;22.70;14.10;;;;;;;16.16;64.56;99098.13;104491;1291;99389;-68
2022/06/17 02:41:34;;;;;;;20.80;13.30;;;;;;;16.13;64.49;99102.29;104863;1290;99236;-68
2022/06/17 02:44:29;;;;;;;21.10;13.50;;;;;;;16.11;64.54;99105.90;104893;1288;113428;-66
2022/06/17 02:47:01;;;;;;;22.20;14.10;;;;;;;16.11;64.75;99108.23;104510;1289;97747;-67
2022/06/17 02:49:34;;;;;;;21.90;13.40;;;;;;;16.09;64.80;99108.78;104756;1290;107766;-67
2022/06/17 02:52:17;;;;;;;21.80;13.80;;;;;;;16.08;64.76;99107.77;104759;1290;99357;-68
2022/06/17 02:54:58;;;;;;;23.10;14.50;;;;;;;16.08;64.88;99111.24;104800;1288;99249;-68
2022/06/17 02:57:30;;;;;;;23.10;14.40;;;;;;;16.02;64.98;99115.70;104630;1290;111974;-68
2022/06/17 03:00:20;;;;;;;23.50;14.10;;;;;;;15.99;64.88;99114.02;104871;1288;99289;-67
2022/06/17 03:03:02;;;;;;;24.30;14.80;;;;;;;15.97;64.98;99125.49;104886;1288;107766;-68
2022/06/17 03:05:37;;;;;;;24.80;15.90;;;;;;;15.95;65.08;99126.74;104892;1288;99219;-68
2022/06/17 03:08:23;;;;;;;25.50;15.50;;;;;;;15.96;65.17;99128.81;104665;1288;98958;-67
2022/06/17 03:10:56;;;;;;;24.30;15.50;;;;;;;15.97;65.29;99133.38;104831;1288;113431;-68
2022/06/17 03:13:41;;;;;;;28.10;16.90;;;;;;;15.97;65.21;99133.91;104741;1288;99262;-67
2022/06/17 03:16:13;;;;;;;27.60;17.00;;;;;;;15.97;65.25;99137.80;104731;1288;108426;-67
2022/06/17 03:18:46;;;;;;;27.70;18.70;;;;;;;15.96;65.28;99140.98;104749;1288;99280;-67
2022/06/17 03:21:23;;;;;;;27.70;18.10;;;;;;;15.93;65.50;99148.38;104788;1288;99253;-66
2022/06/17 03:24:11;;;;;;;27.60;18.10;;;;;;;15.93;65.35;99144.93;104664;1288;112867;-67
2022/06/17 03:27:03;;;;;;;28.80;18.30;;;;;;;15.91;65.53;99142.32;104762;1290;99335;-66
2022/06/17 03:29:33;;;;;;;28.40;18.30;;;;;;;15.88;65.51;99143.08;104827;1288;107106;-68
2022/06/17 03:32:13;;;;;;;27.30;17.40;;;;;;;15.86;65.71;99146.01;104832;1288;99449;-68
2022/06/17 03:34:51;;;;;;;28.00;18.80;;;;;;;15.83;65.72;99151.05;104838;1288;99363;-68
2022/06/17 03:37:57;;;;;;;25.50;16.50;;;;;;;15.82;65.82;99155.31;104775;1288;113442;-68
2022/06/17 03:40:41;;;;;;;28.50;18.90;;;;;;;15.78;65.95;99156.69;104871;1288;99008;-67
2022/06/17 03:43:33;;;;;;;25.10;16.80;;;;;;;15.76;65.92;99159.02;104967;1288;107777;-67
2022/06/17 03:46:07;;;;;;;25.20;16.30;;;;;;;15.75;66.01;99160.43;104933;1288;99439;-68
2022/06/17 03:48:41;;;;;;;26.40;16.20;;;;;;;15.74;66.06;99161.92;104852;1288;96588;-67
2022/06/17 03:51:18;;;;;;;27.80;17.60;;;;;;;15.74;65.93;99161.02;104916;1288;113421;-68
2022/06/17 03:53:49;;;;;;;26.10;17.20;;;;;;;15.74;65.96;99161.67;104809;1288;99258;-67
2022/06/17 03:56:22;;;;;;;28.80;17.30;;;;;;;15.76;66.19;99161.70;104780;1288;107790;-67
2022/06/17 03:58:53;;;;;;;;;;;;;;;15.77;66.29;99163.53;103398;1288;1932038;-67
2022/06/17 04:01:42;;;;;;;27.90;17.10;;;;;;;15.79;66.41;99163.45;104787;1288;99238;-67
2022/06/17 04:04:21;;;;;;;28.40;16.80;;;;;;;15.84;66.36;99165.11;104786;1288;113413;-68
2022/06/17 04:06:56;;;;;;;27.60;18.10;;;;;;;15.86;66.36;99162.76;104694;1290;99370;-68
2022/06/17 04:09:37;;;;;;;29.30;18.10;;;;;;;15.88;66.32;99162.83;104803;1288;107831;-68
2022/06/17 04:12:14;;;;;;;29.00;17.50;;;;;;;15.87;66.60;99166.60;104783;1288;99373;-67
2022/06/17 04:15:00;;;;;;;28.70;17.10;;;;;;;15.87;66.54;99170.77;104785;1287;99255;-67
2022/06/17 04:17:34;;;;;;;28.40;17.20;;;;;;;15.86;66.57;99173.90;104791;1288;112419;-68
2022/06/17 04:20:21;;;;;;;28.80;17.20;;;;;;;15.84;66.32;99177.95;104844;1288;99359;-67
2022/06/17 04:22:54;;;;;;;27.10;17.00;;;;;;;15.84;66.50;99182.30;104940;1288;106252;-67
2022/06/17 04:25:40;;;;;;;30.60;16.90;;;;;;;15.84;66.51;99186.90;104844;1287;99336;-67
2022/06/17 04:28:15;;;;;;;29.70;17.50;;;;;;;15.84;66.69;99186.56;104862;1288;99386;-68
2022/06/17 04:30:50;;;;;;;28.20;16.70;;;;;;;15.86;66.72;99189.27;104809;1288;112823;-67
2022/06/17 04:33:23;;;;;;;27.70;15.90;;;;;;;15.87;66.72;99189.21;104832;1287;99351;-67
2022/06/17 04:35:58;;;;;;;27.80;16.90;;;;;;;15.87;66.78;99190.92;104805;1288;108413;-66
2022/06/17 04:38:34;;;;;;;26.30;15.50;;;;;;;15.91;66.72;99195.92;104925;1288;99299;-66
2022/06/17 04:41:07;;;;;;;25.60;15.10;;;;;;;15.96;66.95;99197.51;104922;1288;98376;-67
2022/06/17 04:43:44;;;;;;;26.10;15.60;;;;;;;15.99;66.92;99197.92;104781;1288;113533;-67
2022/06/17 04:46:26;;;;;;;25.60;15.20;;;;;;;16.03;66.91;99196.45;104807;1288;97787;-67
2022/06/17 04:48:58;;;;;;;25.70;15.20;;;;;;;16.10;67.17;99203.37;104773;1288;108526;-67
2022/06/17 04:51:31;;;;;;;24.80;13.50;;;;;;;16.15;67.01;99201.40;104810;1288;99303;-67
2022/06/17 04:54:07;;;;;;;21.70;12.80;;;;;;;16.24;67.23;99202.57;104828;1288;97606;-68
2022/06/17 04:56:42;;;;;;;22.30;12.30;;;;;;;16.27;67.27;99198.23;104795;1288;112749;-68
2022/06/17 04:59:23;;;;;;;24.50;13.20;;;;;;;16.30;67.10;99197.15;104608;1289;99396;-68
2022/06/17 05:01:56;;;;;;;23.00;12.40;;;;;;;16.33;67.07;99201.39;104949;1288;106713;-68
2022/06/17 05:04:27;;;;;;;25.60;13.30;;;;;;;16.34;67.01;99196.46;104782;1287;98918;-66
2022/06/17 05:06:55;;;;;;;22.90;13.20;;;;;;;16.35;67.11;99199.52;104799;1288;99347;-67
2022/06/17 05:09:42;;;;;;;23.80;12.60;;;;;;;16.39;67.15;99204.23;104833;1288;113443;-68
2022/06/17 05:12:24;;;;;;;23.00;12.60;;;;;;;16.41;67.16;99201.17;104631;1288;99340;-67
2022/06/17 05:15:01;;;;;;;20.90;11.50;;;;;;;16.45;67.24;99202.54;104769;1288;106845;-68
2022/06/17 05:17:29;;;;;;;19.10;10.80;;;;;;;16.50;67.17;99200.13;104777;1288;99144;-67
2022/06/17 05:19:57;;;;;;;20.00;11.40;;;;;;;16.54;67.29;99196.00;104779;1288;99351;-67
2022/06/17 05:22:35;;;;;;;21.80;11.90;;;;;;;16.57;67.13;99197.32;104780;1290;113410;-66
2022/06/17 05:25:12;;;;;;;20.50;10.90;;;;;;;16.58;67.23;99203.09;104768;1288;99278;-67
2022/06/17 05:27:41;;;;;;;21.00;10.60;;;;;;;16.56;67.14;99200.77;104819;1288;107738;-69
2022/06/17 05:30:12;;;;;;;19.80;10.70;;;;;;;16.52;67.10;99201.89;104742;1288;97118;-69
2022/06/17 05:32:47;;;;;;;18.50;10.30;;;;;;;16.49;67.23;99198.91;104791;1287;99457;-69
2022/06/17 05:35:18;;;;;;;18.90;10.80;;;;;;;16.50;67.15;99201.61;104597;1288;112399;-70
2022/06/17 05:37:49;;;;;;;18.50;11.10;;;;;;;16.53;67.31;99201.36;104685;1289;96624;-67
2022/06/17 05:40:19;;;;;;;19.70;11.30;;;;;;;16.54;67.46;99201.52;104796;1288;107660;-68
2022/06/17 05:42:50;;;;;;;20.10;12.00;;;;;;;16.49;67.25;99202.23;104765;1288;99348;-67
2022/06/17 05:45:23;;;;;;;20.00;11.60;;;;;;;16.49;67.30;99210.05;104829;1288;99264;-66
2022/06/17 05:47:53;;;;;;;22.80;12.80;;;;;;;16.51;67.27;99212.19;104757;1288;112546;-68
2022/06/17 05:50:26;;;;;;;19.90;11.90;;;;;;;16.51;67.31;99220.21;104782;1288;96591;-68
2022/06/17 05:53:03;;;;;;;21.70;12.40;;;;;;;16.49;67.26;99209.60;104861;1288;107826;-68
2022/06/17 05:55:35;;;;;;;21.70;11.90;;;;;;;16.50;67.31;99210.27;104867;1288;99382;-67
2022/06/17 05:58:06;;;;;;;19.70;11.50;;;;;;;16.53;67.49;99208.41;104804;1288;99377;-67
2022/06/17 06:00:36;;;;;;;20.60;12.10;;;;;;;16.57;67.59;99216.69;104790;1288;112983;-68
2022/06/17 06:03:10;;;;;;;23.00;12.20;;;;;;;16.59;67.46;99220.71;104780;1288;99247;-68
2022/06/17 06:05:37;;;;;;;19.70;11.60;;;;;;;16.67;67.42;99224.85;104769;1288;107750;-68
2022/06/17 06:08:07;;;;;;;19.20;11.50;;;;;;;16.73;67.52;99224.11;104830;1288;99827;-67
2022/06/17 06:10:38;;;;;;;20.70;12.10;;;;;;;16.80;67.38;99225.66;104826;1288;98410;-67
2022/06/17 06:13:05;;;;;;;20.30;12.20;;;;;;;16.84;67.43;99226.82;104853;1288;112829;-69
2022/06/17 06:15:42;;;;;;;19.90;11.60;;;;;;;16.85;67.43;99234.02;104827;1288;96657;-68
2022/06/17 06:18:15;;;;;;;20.40;12.40;;;;;;;16.82;67.48;99234.98;104973;1287;107788;-69
2022/06/17 06:20:43;;;;;;;;;;;;;;;16.78;67.46;99234.50;105028;1288;99239;-69
2022/06/17 06:23:12;;;;;;;20.30;11.20;;;;;;;16.74;67.56;99232.90;104948;1288;99363;-68
2022/06/17 06:25:44;;;;;;;19.70;11.00;;;;;;;16.69;67.57;99234.88;104847;1288;113397;-68
2022/06/17 06:28:19;;;;;;;18.40;10.30;;;;;;;16.65;67.46;99244.48;104850;1288;99087;-66
2022/06/17 06:30:59;;;;;;;20.00;11.40;;;;;;;16.65;67.47;99250.02;104799;1287;108390;-68
2022/06/17 06:33:29;;;;;;;20.00;11.40;;;;;;;16.66;67.53;99246.16;104862;1288;99351;-68
2022/06/17 06:35:59;;;;;;;21.70;12.00;;;;;;;16.73;67.56;99249.36;104879;1288;99156;-69
2022/06/17 06:38:27;;;;;;;19.40;11.20;;;;;;;16.77;67.63;99249.79;104937;1288;112799;-67
2022/06/17 06:40:57;;;;;;;21.40;13.00;;;;;;;16.82;67.48;99248.48;104934;1288;99238;-67
2022/06/17 06:43:27;;;;;;;21.60;12.00;;;;;;;16.84;67.55;99255.42;104862;1288;108463;-67
2022/06/17 06:45:55;;;;;;;22.60;13.30;;;;;;;16.87;67.64;99256.05;104840;1288;97043;-68
2022/06/17 06:48:27;;;;;;;22.10;14.10;;;;;;;16.88;67.53;99254.70;104817;1288;100431;-67
2022/06/17 06:50:56;;;;;;;21.60;13.20;;;;;;;16.83;67.47;99263.77;104839;1288;113431;-67
2022/06/17 06:53:26;;;;;;;23.40;13.30;;;;;;;16.80;67.58;99264.88;104939;1290;99346;-67
2022/06/17 06:55:56;;;;;;;22.10;13.60;;;;;;;16.82;67.54;99265.14;104863;1288;108264;-68
2022/06/17 06:58:27;;;;;;;26.50;14.30;;;;;;;16.78;67.59;99262.45;104845;1288;99237;-69
2022/06/17 07:00:58;;;;;;;22.10;13.40;;;;;;;16.77;67.68;99259.73;104771;1288;99209;-67
2022/06/17 07:03:33;;;;;;;22.30;13.40;;;;;;;16.76;67.72;99263.88;104859;1288;113424;-66
2022/06/17 07:06:06;;;;;;;23.50;14.60;;;;;;;16.75;67.69;99264.53;104757;1290;99390;-68
2022/06/17 07:08:37;;;;;;;25.00;15.10;;;;;;;16.71;67.71;99262.73;104979;1288;108359;-68
2022/06/17 07:11:08;;;;;;;23.90;14.60;;;;;;;16.71;67.75;99266.20;104844;1288;97799;-69
2022/06/17 07:13:45;;;;;;;20.20;12.20;;;;;;;16.73;67.84;99269.04;104761;1288;96681;-69
2022/06/17 07:16:15;;;;;;;21.80;12.40;;;;;;;16.76;67.79;99266.42;104764;1288;112806;-69
2022/06/17 07:18:44;;;;;;;20.80;10.90;;;;;;;16.78;67.76;99266.93;104837;1288;99266;-69
2022/06/17 07:21:15;;;;;;;21.60;11.70;;;;;;;16.86;67.67;99272.44;104869;1288;108371;-67
2022/06/17 07:23:46;;;;;;;18.10;10.80;;;;;;;16.97;67.62;99272.90;104830;1288;99376;-67
2022/06/17 07:26:25;;;;;;;19.40;11.30;;;;;;;17.02;67.61;99277.02;104846;1288;99276;-69
2022/06/17 07:28:54;;;;;;;18.30;10.60;;;;;;;17.07;67.65;99276.23;104819;1288;113459;-70
2022/06/17 07:31:25;;;;;;;20.10;11.00;;;;;;;17.10;67.67;99278.26;104917;1288;97721;-69
2022/06/17 07:33:57;;;;;;;19.20;10.80;;;;;;;17.14;67.71;99282.02;104621;1289;107838;-67
2022/06/17 07:42:08;;;;;;;18.10;10.80;;;;;;;17.16;67.78;99288.61;104762;1290;113373;-68
2022/06/17 07:44:37;;;;;;;19.90;12.30;;;;;;;17.17;67.70;99289.20;104778;1288;99283;-67
2022/06/17 07:47:15;;;;;;;19.10;11.50;;;;;;;17.21;67.78;99285.95;104827;1288;106220;-68
2022/06/17 07:49:45;;;;;;;20.20;11.90;;;;;;;17.23;67.74;99285.71;104766;1288;99137;-69
2022/06/17 07:52:13;;;;;;;23.20;13.00;;;;;;;17.24;67.59;99291.73;104790;1288;99326;-67
2022/06/17 07:54:44;;;;;;;21.50;12.70;;;;;;;17.23;67.65;99293.85;104776;1288;112406;-67
2022/06/17 07:57:16;;;;;;;24.30;14.90;;;;;;;17.22;67.58;99301.15;104893;1291;99396;-67
2022/06/17 07:59:49;;;;;;;21.40;14.20;;;;;;;17.18;67.60;99300.36;104704;1290;107129;-68
2022/06/17 08:02:17;;;;;;;21.20;13.80;;;;;;;17.18;67.66;99304.72;104891;1290;96658;-68
2022/06/17 08:04:45;;;;;;;21.60;14.70;;;;;;;17.16;67.63;99303.48;104856;1290;99348;-68
2022/06/17 08:07:15;;;;;;;22.30;14.90;;;;;;;17.09;67.54;99309.30;104817;1288;113231;-68
2022/06/17 08:09:46;;;;;;;22.40;14.90;;;;;;;17.09;67.55;99306.64;104785;1290;99347;-70
2022/06/17 08:12:14;;;;;;;23.50;15.90;;;;;;;17.68;67.42;99303.28;104751;1290;108438;-70
2022/06/17 08:14:47;;;;;;;22.00;13.10;;;;;;;18.73;67.12;99296.52;104935;1290;99222;-70
2022/06/17 08:17:18;;;;;;;24.00;14.20;;;;;;;19.72;66.75;99297.89;104970;1290;99260;-69
2022/06/17 08:19:55;;;;;;;20.20;12.10;;;;;;;20.34;66.52;99301.60;104694;1289;113432;-69
2022/06/17 08:22:26;;;;;;;20.00;12.40;;;;;;;20.50;66.75;99299.05;104744;1290;99252;-68
2022/06/17 08:24:56;;;;;;;19.30;11.60;;;;;;;20.53;66.79;99296.02;104802;1290;108471;-69
2022/06/17 08:27:24;;;;;;;21.20;12.60;;;;;;;20.48;66.89;99296.02;104918;1290;99252;-68
2022/06/17 08:29:52;;;;;;;19.50;12.00;;;;;;;20.57;66.43;99296.14;104783;1289;99200;-68
2022/06/17 08:35:10;;;;;;;21.80;12.70;;;;;;;20.59;66.25;99296.96;104799;1290;99325;-69
2022/06/17 08:37:37;;;;;;;18.50;11.30;;;;;;;20.58;66.57;99299.69;104787;1288;107643;-70
2022/06/17 08:40:17;;;;;;;22.80;12.10;;;;;;;20.50;66.20;99304.49;104859;1289;99351;-78
2022/06/17 08:43:09;;;;;;;18.00;10.50;;;;;;;20.46;66.39;99301.33;104853;1289;99261;-72
2022/06/17 08:46:03;;;;;;;18.30;10.80;;;;;;;20.48;66.30;99302.23;104761;1290;112597;-72
2022/06/17 08:48:51;;;;;;;18.90;10.50;;;;;;;20.62;66.03;99302.56;104663;1290;99251;-70
2022/06/17 08:51:43;;;;;;;17.10;9.80;;;;;;;20.81;65.92;99301.25;104696;1288;107736;-70
2022/06/17 08:54:24;;;;;;;19.90;10.50;;;;;;;20.77;65.96;99304.82;104564;1290;99292;-72
2022/06/17 08:56:59;;;;;;;19.80;9.90;;;;;;;21.07;65.53;99306.32;104713;1290;98173;-71
2022/06/17 09:00:05;;;;;;;18.60;9.80;;;;;;;21.79;65.20;99299.91;104761;1290;114295;-71
2022/06/17 09:02:42;;;;;;;17.20;9.10;;;;;;;22.80;64.50;99301.52;104818;1290;97389;-72
2022/06/17 09:05:18;;;;;;;16.00;8.60;;;;;;;23.60;64.47;99302.44;104696;1290;107853;-80
2022/06/17 09:08:08;;;;;;;16.90;8.50;;;;;;;24.24;64.19;99301.95;104870;1290;97280;-70
2022/06/17 09:11:00;;;;;;;15.60;8.50;;;;;;;24.88;64.17;99304.40;104808;1288;99465;-72
2022/06/17 09:13:37;;;;;;;18.30;8.90;;;;;;;25.20;63.97;99305.80;104758;1288;112734;-72
2022/06/17 09:16:35;;;;;;;16.40;7.50;;;;;;;25.04;63.81;99306.85;104842;1288;99271;-70
2022/06/17 09:19:03;;;;;;;14.40;7.60;;;;;;;25.49;62.76;99300.09;104755;1288;108188;-68
2022/06/17 09:21:47;;;;;;;14.90;7.70;;;;;;;25.87;63.47;99297.73;104745;1288;99928;-70
2022/06/17 09:24:22;;;;;;;16.40;8.40;;;;;;;26.13;63.21;99301.19;104874;1288;99267;-72
2022/06/17 09:27:01;;;;;;;14.30;6.70;;;;;;;25.76;62.85;99302.19;104897;1288;112737;-76
2022/06/17 09:29:49;;;;;;;12.90;7.30;;;;;;;25.39;61.94;99312.09;104816;1288;99254;-73
2022/06/17 09:32:31;;;;;;;15.60;6.90;;;;;;;25.52;62.40;99313.18;104748;1288;108538;-69
2022/06/17 09:35:23;;;;;;;12.10;6.70;;;;;;;25.81;61.77;99305.70;104827;1288;99268;-75
2022/06/17 09:38:30;;;;;;;10.90;6.40;;;;;;;26.07;62.14;99302.65;104848;1288;96606;-72
2022/06/17 09:41:17;;;;;;;14.40;6.50;;;;;;;25.95;62.17;99308.86;104579;1288;112695;-73
2022/06/17 09:43:55;;;;;;;20.50;11.10;;;;;;;25.98;61.52;99306.35;104807;1289;99345;-74
2022/06/17 09:46:44;;;;;;;18.70;11.30;;;;;;;26.01;61.60;99304.93;104927;1288;107843;-83
2022/06/17 09:49:37;;;;;;;18.20;8.90;;;;;;;26.18;61.64;99299.38;104959;1288;99208;-76
2022/06/17 09:52:38;;;;;;;17.00;7.40;;;;;;;26.17;61.45;99299.44;105032;1288;99288;-78
2022/06/17 09:55:19;;;;;;;14.50;6.30;;;;;;;25.89;60.89;99301.39;104892;1288;112839;-78
2022/06/17 09:57:59;;;;;;;13.50;5.90;;;;;;;25.64;60.40;99305.63;104953;1288;99371;-80
2022/06/17 10:00:37;;;;;;;12.80;5.50;;;;;;;25.21;59.67;99307.19;105026;1288;107639;-84
2022/06/17 10:03:22;;;;;;;11.40;5.00;;;;;;;24.69;59.78;99299.56;104765;1288;97908;-76
2022/06/17 10:06:31;;;;;;;9.70;4.90;;;;;;;24.20;59.31;99303.56;104526;1290;99378;-79
2022/06/17 10:09:11;;;;;;;11.20;4.70;;;;;;;23.75;59.23;99312.91;104665;1288;112396;-78
2022/06/17 10:11:41;;;;;;;12.40;4.90;;;;;;;23.49;59.10;99314.81;104477;1288;99254;-80
2022/06/17 10:14:21;;;;;;;10.20;4.80;;;;;;;23.12;58.89;99312.83;106414;1288;107825;-78
2022/06/17 10:20:00;;;;;;;15.40;4.80;;;;;;;22.68;58.79;99318.04;106411;1288;97541;-74
2022/06/17 10:22:30;;;;;;;14.80;4.80;;;;;;;22.55;58.43;99317.42;105773;1288;112791;-76
2022/06/17 10:25:21;;;;;;;10.10;4.40;;;;;;;22.48;58.23;99312.20;104601;1288;99289;-73
2022/06/17 10:28:02;;;;;;;12.30;4.70;;;;;;;22.48;58.45;99305.29;104684;1288;107740;-68
2022/06/17 10:30:44;;;;;;;10.70;3.50;;;;;;;22.54;58.20;99310.14;104688;1288;98005;-68
2022/06/17 10:33:16;;;;;;;5.70;3.30;;;;;;;22.57;57.87;99307.95;104761;1290;96661;-68
2022/06/17 10:35:48;;;;;;;9.30;4.00;;;;;;;22.60;57.70;99307.86;104750;1288;113341;-68
2022/06/17 10:38:28;;;;;;;13.60;4.40;;;;;;;22.56;57.55;99309.59;104813;1288;99354;-69
2022/06/17 10:41:00;;;;;;;8.40;3.20;;;;;;;22.45;57.30;99308.28;104715;1288;107839;-70
2022/06/17 10:43:38;;;;;;;10.00;2.90;;;;;;;22.29;57.10;99308.58;104502;1287;99799;-71
2022/06/17 10:46:13;;;;;;;8.70;3.20;;;;;;;22.25;56.93;99307.05;104630;1288;99372;-70
2022/06/17 10:48:54;;;;;;;9.30;2.90;;;;;;;22.28;57.01;99294.48;104680;1288;113075;-72
2022/06/17 10:51:23;;;;;;;5.70;2.80;;;;;;;22.34;56.80;99303.86;104614;1288;99248;-72
2022/06/17 10:53:58;;;;;;;8.00;2.70;;;;;;;22.32;56.32;99306.75;104522;1288;108160;-73
2022/06/17 10:56:36;;;;;;;4.90;2.60;;;;;;;22.28;56.20;99301.10;104572;1288;99687;-75
2022/06/17 10:59:14;;;;;;;8.90;2.80;;;;;;;22.28;56.17;99303.42;104705;1288;99370;-76
2022/06/17 11:01:44;;;;;;;6.10;2.60;;;;;;;22.33;56.01;99300.92;104566;1288;112913;-76
2022/06/17 11:04:46;;;;;;;8.20;2.80;;;;;;;22.34;56.16;99296.48;104624;1288;99368;-69
2022/06/17 11:07:30;;;;;;;3.80;2.50;;;;;;;22.39;56.02;99291.36;104628;1288;107734;-73
2022/06/17 11:10:25;;;;;;;6.10;2.60;;;;;;;22.46;55.65;99293.10;104663;1288;99245;-73
2022/06/17 11:12:58;;;;;;;5.30;2.10;;;;;;;22.50;55.77;99292.10;104833;1288;99612;-70
2022/06/17 11:15:44;;;;;;;7.90;2.70;;;;;;;22.50;55.11;99295.27;104812;1288;112559;-71
2022/06/17 11:18:21;;;;;;;3.70;2.00;;;;;;;22.50;55.37;99295.28;104450;1287;99730;-71
2022/06/17 11:21:05;;;;;;;5.50;2.10;;;;;;;22.55;55.24;99292.59;104785;1288;108878;-73
2022/06/17 11:23:39;;;;;;;8.80;2.40;;;;;;;22.54;54.81;99293.34;104578;1288;97800;-71
2022/06/17 11:26:17;;;;;;;7.60;3.00;;;;;;;22.53;54.97;99293.66;104692;1288;99260;-73
2022/06/17 11:28:50;;;;;;;7.20;2.10;;;;;;;22.51;54.76;99296.45;104775;1288;112787;-71
2022/06/17 11:31:21;;;;;;;3.60;1.90;;;;;;;22.50;54.43;99290.73;104766;1288;97403;-67
2022/06/17 11:33:52;;;;;;;7.30;2.10;;;;;;;22.45;54.21;99292.80;104743;1288;107517;-70
2022/06/17 11:36:36;;;;;;;3.10;2.10;;;;;;;22.44;54.23;99289.70;104665;1288;99267;-71
2022/06/17 11:39:35;;;;;;;4.80;2.10;;;;;;;22.47;53.93;99298.72;104767;1288;99954;-69
2022/06/17 11:42:25;;;;;;;8.90;2.20;;;;;;;22.44;53.93;99300.30;104721;1288;112484;-69
2022/06/17 11:44:57;;;;;;;6.40;2.20;;;;;;;22.42;53.10;99302.67;104672;1289;97350;-69
2022/06/17 11:47:29;;;;;;;7.00;2.10;;;;;;;22.33;53.13;99296.88;104679;1288;107572;-70
2022/06/17 11:50:24;;;;;;;4.70;2.20;;;;;;;22.27;53.40;99295.61;104736;1288;99258;-69
2022/06/17 11:53:05;;;;;;;4.20;2.10;;;;;;;22.26;53.00;99297.92;104731;1288;98072;-69
2022/06/17 11:55:44;;;;;;;4.00;1.90;;;;;;;22.24;53.19;99299.70;104568;1290;112771;-70
2022/06/17 11:58:52;;;;;;;7.00;1.90;;;;;;;22.23;53.10;99303.42;104794;1288;98506;-69
2022/06/17 12:01:23;;;;;;;7.90;2.10;;;;;;;22.24;53.20;99299.03;104691;1288;107837;-70
2022/06/17 12:03:52;;;;;;;5.50;2.00;;;;;;;22.31;52.96;99299.17;104843;1288;99314;-70
2022/06/17 12:06:28;;;;;;;10.40;2.30;;;;;;;22.34;52.95;99302.27;104894;1288;99280;-72